National Weather Service United States Department of Commerce

Airport Observations and Forecasts (from NWS CLE)

Cleveland Hopkins International Airport

 

FAA details


592
FTUS41 KCLE 222320
TAFCLE
TAF
KCLE 222320Z 2300/2406 04005KT P6SM OVC250
FM231400 12011KT P6SM OVC120
FM231800 12011KT P6SM OVC050
FM232200 14013KT P6SM VCSH OVC012
FM240000 15014G24KT 5SM -RA BR OVC008=

24 hours of observations

7-day forecast

Hourly - Tabular forecast  Hourly - Graph forecast

Terminal Information Board

Toledo Express Airport

 

FAA details


640
FTUS41 KCLE 222320
TAFTOL
TAF
KTOL 222320Z 2300/2324 09005KT P6SM BKN250
FM231500 09008KT P6SM OVC045
FM232000 09008KT P6SM VCSH OVC020
FM232100 09007KT 2SM -RA BR OVC008=

24 hours of observations

7-day forecast

Hourly - Tabular forecast  Hourly - Graph forecast

Terminal Information Board

Findlay Airport

 

FAA details


000
FTUS41 KCLE 222320
TAFFDY
TAF
KFDY 222320Z 2300/2324 05005KT P6SM BKN250
FM231400 11008KT P6SM OVC060
FM231800 13010KT P6SM VCSH OVC025
FM232000 15011KT 4SM -RA BR OVC006=

24 hours of observations

7-day forecast

Hourly - Tabular forecast   Hourly - Graph forecast

Terminal Information Board

Mansfield Lahm Airport

 

FAA details


613
FTUS41 KCLE 222320
TAFMFD
TAF
KMFD 222320Z 2300/2324 09005KT P6SM BKN250
FM231600 13011KT P6SM OVC050
FM231800 14012KT P6SM VCSH OVC020
FM232100 14012KT 4SM -RA BR OVC008=

24 hours of observations

7-day forecast

Hourly - Tabular forecast   Hourly - Graph forecast

Terminal Information Board

Akron-Canton Airport

 

FAA details


596
FTUS41 KCLE 222320
TAFCAK
TAF
KCAK 222320Z 2300/2324 08004KT P6SM OVC250
FM231600 12011KT P6SM OVC060
FM231800 13011KT P6SM VCSH OVC012
FM232200 14012KT 5SM -RA BR OVC008=

24 hours of observations

7-day forecast

Hourly - Tabular forecast   Hourly - Graph forecast

Terminal Information Board

Youngstown-Warren Regional Airport

 

FAA details


612
FTUS41 KCLE 222320
TAFYNG
TAF
KYNG 222320Z 2300/2324 VRB03KT P6SM OVC250
FM231600 13013KT P6SM BKN130
FM231900 13013KT P6SM OVC030
FM232100 13013KT P6SM OVC015=

24 hours of observations

7-day forecast

Hourly - Tabular forecast   Hourly - Graph forecast

Terminal Information Board

Erie International Airport

 

FAA details


599
FTUS41 KCLE 222320
TAFERI
TAF
KERI 222320Z 2300/2324 05004KT P6SM BKN250
FM230600 09006KT P6SM SCT250
FM231100 12007KT P6SM BKN250
FM232100 14012KT P6SM VCSH OVC025
FM232200 14010KT P6SM OVC008=

24 hours of observations

7-day forecast

Hourly - Tabular Forecast  Hourly - Graph forecast

Terminal Information Board

The National Weather Service is Cleveland is responsible for the Terminal Areodome Forecasts for seven area airports in northern Ohio and northwest Pennsylvania.  Routine issuance times are by 00Z, 06Z, 12Z, and 18Z with amendments, as needed.

Latest Surface Analysis

Additional Current Conditions

Satellite

Radar
 
 

 

Center Weather Service Unit, Oberlin/ZOB

CWA/MIS    

 

The National Weather Service Center Weather Service Unit in Oberlin is responsible for the airspace above northern Ohio and northwest Pennsylvania and ajoining areas.

 

Aviaiton Weather Center National, AWC

AIRMETS & SIGMETS